Ivor, Virginia
Current Conditions -  °F | °C
As of 1:54 PM on Monday 22 Dec 2014 (Local Time) from KAKQ Reporting Station
Overcast Overcast  
Wind Chill: 38°   Ceiling: 500
Heat Index: 42°   Visibility: 7mi
Dew Point: 40°   Wind: 7mph
Humidity: 92%   Direction: 10°N
Pressure: 30.08"   Gusts: NA
Location:  36.9°N, 76.9°W
Report Text: KAKQ 221854Z AUTO 01006KT 7SM OVC005 06/04 A3008 RMK AO2 RAE31 SLP188 P0005 T00560044 TSNO $
Loading
Personal Weather Stations






























Interactive Weather Map New forecast layout! Learn more

10-Day Weather Forecast

Advertisements
Track Severe Weather on mobile